Time;durP1;ratioP1;P1;durP2;ratioP2;P2;SDS_P1;SDS_P2;PMS_P1;PMS_P2;Temp;Humidity;BMP_temperature;BMP_pressure;BME280_temperature;BME280_humidity;BME280_pressure;Samples;Min_cycle;Max_cycle;Signal;HPM_P1;HPM_P2
2022/12/22 03:28:08;;;;;;;8.40;5.53;;;;;;;8.09;95.71;99448.38;5029558;28;20699;-69
2022/12/22 03:30:34;;;;;;;8.70;6.00;;;;;;;8.12;96.21;99441.38;5028358;28;20221;-69
2022/12/22 03:33:01;;;;;;;9.37;5.10;;;;;;;8.13;95.91;99447.53;5029810;28;20201;-68
2022/12/22 03:35:27;;;;;;;8.60;5.27;;;;;;;8.16;96.08;99442.28;5029621;28;20274;-69
2022/12/22 03:37:53;;;;;;;11.43;6.50;;;;;;;8.23;95.85;99440.56;5027986;28;20251;-68
2022/12/22 03:40:20;;;;;;;10.87;6.53;;;;;;;8.25;94.77;99436.16;5029003;28;20320;-68
2022/12/22 03:48:16;;;;;;;8.27;5.90;;;;;;;8.06;95.28;99428.13;5029491;28;20671;-69
2022/12/22 03:50:42;;;;;;;8.43;5.73;;;;;;;8.12;95.52;99432.56;5027405;28;20215;-69
2022/12/22 03:53:09;;;;;;;8.07;5.73;;;;;;;8.12;95.70;99420.28;5031291;28;20806;-68
2022/12/22 03:55:35;;;;;;;10.37;5.80;;;;;;;8.13;95.67;99429.94;5029530;28;20237;-70
2022/12/22 03:58:01;;;;;;;9.60;5.50;;;;;;;8.19;95.73;99426.47;5027739;28;20287;-69
2022/12/22 04:00:28;;;;;;;6.97;4.47;;;;;;;8.23;95.52;99420.34;5027618;28;20699;-70
2022/12/22 04:02:56;;;;;;;7.63;5.20;;;;;;;8.21;95.57;99411.53;5030201;28;20227;-68
2022/12/22 04:05:23;;;;;;;5.80;4.33;;;;;;;8.26;95.39;99416.84;5027504;28;20197;-68
2022/12/22 04:07:50;;;;;;;7.53;4.53;;;;;;;8.27;95.85;99408.06;5027621;28;20280;-69
2022/12/22 04:13:01;;;;;;;9.23;3.87;;;;;;;8.39;95.56;99411.69;5028509;28;20203;-69
2022/12/22 04:15:30;;;;;;;6.53;3.77;;;;;;;8.39;95.54;99414.31;5028631;28;20213;-69
2022/12/22 04:17:58;;;;;;;6.50;4.20;;;;;;;8.41;95.83;99409.97;5027236;28;20201;-68
2022/12/22 04:20:26;;;;;;;6.10;4.23;;;;;;;8.45;95.97;99408.22;5028487;28;20283;-69
2022/12/22 04:22:54;;;;;;;6.43;4.50;;;;;;;8.41;95.72;99401.16;5029193;28;20243;-69
2022/12/22 04:25:21;;;;;;;7.40;4.77;;;;;;;8.32;95.73;99404.56;5028375;28;20207;-69
2022/12/22 04:27:47;;;;;;;7.77;4.50;;;;;;;8.32;95.54;99393.13;5027646;28;20246;-69
2022/12/22 04:30:14;;;;;;;6.67;4.50;;;;;;;8.26;95.43;99382.56;5032246;28;20586;-68
2022/12/22 04:32:41;;;;;;;7.93;4.80;;;;;;;8.28;95.67;99370.25;5035343;28;20197;-69
2022/12/22 04:35:08;;;;;;;7.40;4.07;;;;;;;8.32;95.64;99382.59;5035246;28;20205;-69
2022/12/22 04:37:34;;;;;;;5.83;4.10;;;;;;;8.35;95.62;99387.91;5012317;28;20682;-70
2022/12/22 04:40:01;;;;;;;7.57;4.10;;;;;;;8.35;95.56;99387.91;5030995;28;20301;-69
2022/12/22 04:42:28;;;;;;;6.27;4.00;;;;;;;8.34;95.78;99379.09;5028874;28;20208;-69
2022/12/22 04:44:54;;;;;;;5.67;3.57;;;;;;;8.39;95.66;99381.78;5024814;28;20677;-68
2022/12/22 04:47:21;;;;;;;4.53;3.33;;;;;;;8.42;95.75;99376.53;5027741;28;20665;-69
2022/12/22 04:49:47;;;;;;;6.73;3.57;;;;;;;8.46;95.93;99378.31;5028906;28;20217;-69
2022/12/22 04:52:13;;;;;;;6.80;3.57;;;;;;;8.56;95.81;99366.06;5025446;28;20780;-68
2022/12/22 04:54:39;;;;;;;3.83;2.90;;;;;;;8.60;96.04;99368.72;5029952;28;20236;-69
2022/12/22 04:57:06;;;;;;;7.17;3.43;;;;;;;8.63;95.86;99367.84;5026405;28;20961;-69
2022/12/22 04:59:32;;;;;;;3.30;2.60;;;;;;;8.64;96.16;99366.97;5030331;28;20277;-68
2022/12/22 05:01:58;;;;;;;3.60;2.50;;;;;;;8.69;96.51;99368.75;5027367;28;20296;-68
2022/12/22 05:04:25;;;;;;;6.17;3.20;;;;;;;8.77;95.74;99368.78;5030088;28;20202;-70
2022/12/22 05:06:51;;;;;;;4.30;3.10;;;;;;;8.74;95.23;99360.84;5025122;28;20195;-69
2022/12/22 05:09:18;;;;;;;4.73;2.60;;;;;;;8.75;95.46;99358.22;5026925;28;20224;-69
2022/12/22 05:11:44;;;;;;;3.53;2.50;;;;;;;8.78;95.75;99344.13;5028057;28;21514;-69
2022/12/22 05:14:10;;;;;;;3.87;2.03;;;;;;;8.85;95.60;99337.16;5028363;28;20226;-68
2022/12/22 05:16:37;;;;;;;2.83;1.90;;;;;;;8.90;95.39;99327.47;5024515;28;22063;-68
2022/12/22 05:21:31;;;;;;;2.53;1.83;;;;;;;9.01;95.74;99326.63;5004299;28;20220;-71
2022/12/22 05:23:57;;;;;;;4.30;2.20;;;;;;;9.06;95.19;99335.44;5015973;28;20203;-71
2022/12/22 05:26:23;;;;;;;3.20;2.03;;;;;;;9.04;95.26;99331.03;5010899;28;20738;-78
2022/12/22 05:28:50;;;;;;;3.60;1.90;;;;;;;9.26;94.86;99326.69;5005249;28;20570;-77
2022/12/22 05:31:19;;;;;;;3.90;2.40;;;;;;;9.13;94.80;99333.69;5018124;28;20257;-73
2022/12/22 05:33:46;;;;;;;4.03;2.00;;;;;;;9.09;95.05;99335.44;5024271;28;20206;-70
2022/12/22 05:36:12;;;;;;;3.90;1.87;;;;;;;9.07;95.27;99339.84;5029064;28;20202;-72
2022/12/22 05:38:39;;;;;;;2.97;1.73;;;;;;;9.16;95.09;99332.81;5025370;28;20255;-75
2022/12/22 05:41:06;;;;;;;3.40;2.10;;;;;;;9.24;94.89;99328.44;5029179;28;20597;-76
2022/12/22 05:43:34;;;;;;;4.03;2.30;;;;;;;9.16;94.50;99324.88;5024213;28;20196;-77
2022/12/22 05:46:05;;;;;;;3.00;2.00;;;;;;;9.22;94.22;99328.44;5025024;28;20202;-74
2022/12/22 05:48:32;;;;;;;4.33;2.23;;;;;;;9.11;94.50;99312.56;4998559;28;20686;-75
2022/12/22 05:51:05;;;;;;;5.63;2.70;;;;;;;9.16;94.47;99314.31;5013618;28;20223;-73
2022/12/22 05:53:32;;;;;;;4.13;2.00;;;;;;;9.13;94.75;99311.66;5005483;28;20688;-75
2022/12/22 05:55:58;;;;;;;2.57;1.80;;;;;;;9.21;94.43;99313.47;4998749;28;20290;-72
2022/12/22 05:58:24;;;;;;;3.43;1.50;;;;;;;9.28;94.55;99311.72;4995328;28;20236;-72
2022/12/22 06:00:51;;;;;;;2.30;1.27;;;;;;;9.34;94.86;99309.06;4993536;28;20617;-79
2022/12/22 06:03:17;;;;;;;1.57;1.10;;;;;;;9.35;94.41;99305.56;5001567;28;20193;-82
2022/12/22 06:05:43;;;;;;;1.30;0.97;;;;;;;9.39;94.70;99294.97;5005446;28;20201;-82
2022/12/22 06:08:10;;;;;;;2.00;1.00;;;;;;;9.45;94.27;99290.56;5002564;28;20279;-77
2022/12/22 06:10:36;;;;;;;1.63;0.90;;;;;;;9.53;94.53;99297.63;5006528;28;20259;-76
2022/12/22 06:13:02;;;;;;;1.13;0.80;;;;;;;9.60;93.99;99291.44;5000987;28;20204;-80
2022/12/22 06:15:28;;;;;;;2.30;0.90;;;;;;;9.74;93.64;99297.63;4998547;28;20563;-75
2022/12/22 06:17:55;;;;;;;1.83;0.90;;;;;;;9.76;93.53;99292.34;4998077;28;22115;-76
2022/12/22 06:20:21;;;;;;;2.80;0.80;;;;;;;9.73;93.43;99298.50;5000223;28;20283;-80
2022/12/22 06:22:47;;;;;;;3.17;1.00;;;;;;;9.76;93.43;99302.03;5004138;28;20200;-80
2022/12/22 06:25:14;;;;;;;1.60;0.87;;;;;;;9.76;93.35;99292.34;5008449;28;20223;-78
2022/12/22 06:27:45;;;;;;;1.43;0.90;;;;;;;9.74;93.45;99296.75;5003449;28;20199;-79
2022/12/22 06:30:11;;;;;;;6.03;1.33;;;;;;;9.80;93.56;99293.22;5007174;28;20700;-79
2022/12/22 06:32:38;;;;;;;5.87;1.57;;;;;;;9.89;93.13;99288.78;5006902;28;22199;-77
2022/12/22 06:35:06;;;;;;;3.43;1.20;;;;;;;9.86;93.14;99293.19;5006232;28;20211;-79
2022/12/22 06:37:33;;;;;;;3.53;1.10;;;;;;;9.83;93.15;99291.44;5007016;28;20774;-73
2022/12/22 06:39:59;;;;;;;3.67;1.20;;;;;;;9.90;92.46;99293.19;5002289;28;20706;-78
2022/12/22 06:45:10;;;;;;;2.67;1.30;;;;;;;9.89;92.78;99296.72;5004400;28;20279;-74
2022/12/22 06:47:37;;;;;;;3.70;1.10;;;;;;;9.92;92.88;99293.19;5006484;28;20232;-67
2022/12/22 06:50:03;;;;;;;2.77;1.10;;;;;;;9.92;92.55;99294.06;5009989;28;20754;-77
2022/12/22 06:52:30;;;;;;;3.13;0.97;;;;;;;9.77;92.22;99248.25;5005372;28;20236;-76
2022/12/22 06:54:56;;;;;;;4.37;1.03;;;;;;;10.02;92.05;99279.97;5005953;28;20298;-72
2022/12/22 06:57:22;;;;;;;3.37;0.87;;;;;;;10.03;91.78;99286.13;5010893;28;20236;-71
2022/12/22 06:59:49;;;;;;;2.07;1.00;;;;;;;10.05;91.88;99295.81;5009047;28;20259;-73
2022/12/22 07:02:22;;;;;;;3.03;1.00;;;;;;;9.98;91.74;99291.41;5007973;28;20199;-73
2022/12/22 07:04:49;;;;;;;2.00;1.17;;;;;;;10.01;91.65;99307.28;5005927;28;20198;-73
2022/12/22 07:07:15;;;;;;;2.73;1.30;;;;;;;10.09;91.35;99307.28;5004611;28;20204;-70
2022/12/22 07:09:42;;;;;;;5.73;1.67;;;;;;;10.20;90.46;99310.81;5003430;28;20222;-72
2022/12/22 07:12:08;;;;;;;4.97;1.23;;;;;;;10.22;90.36;99311.69;5002523;28;20205;-69
2022/12/22 07:14:34;;;;;;;4.13;1.60;;;;;;;10.17;90.49;99291.38;5004135;28;20462;-70
2022/12/22 07:17:01;;;;;;;3.67;1.40;;;;;;;10.30;89.94;99304.59;5006546;28;20206;-79
2022/12/22 07:19:27;;;;;;;4.33;1.33;;;;;;;10.34;89.72;99298.41;5010081;28;20661;-72
2022/12/22 07:21:53;;;;;;;4.00;1.00;;;;;;;10.41;89.43;99304.56;5006613;28;20200;-73
2022/12/22 07:24:23;;;;;;;4.13;1.47;;;;;;;10.46;89.14;99302.78;5010484;28;20676;-73
2022/12/22 07:26:50;;;;;;;5.90;1.80;;;;;;;10.48;88.94;99311.59;5002175;28;20201;-71
2022/12/22 07:29:17;;;;;;;5.70;1.80;;;;;;;10.48;88.67;99295.72;5009277;28;20204;-75
2022/12/22 07:31:43;;;;;;;4.10;1.50;;;;;;;10.49;88.83;99302.78;5008022;28;20566;-72
2022/12/22 07:34:10;;;;;;;3.67;1.40;;;;;;;10.50;88.63;99303.66;5010138;28;20728;-73
2022/12/22 07:36:36;;;;;;;5.27;1.63;;;;;;;10.48;88.60;99290.44;5009250;28;20263;-77
2022/12/22 07:39:03;;;;;;;4.50;1.83;;;;;;;10.50;89.05;99314.25;5009713;28;20250;-80
2022/12/22 07:44:14;;;;;;;5.23;1.40;;;;;;;10.52;89.35;99308.06;5011022;28;20266;-73
2022/12/22 07:46:40;;;;;;;4.10;1.40;;;;;;;10.54;89.32;99316.00;5009279;28;20198;-73
2022/12/22 07:51:57;;;;;;;4.83;1.63;;;;;;;10.47;90.21;99316.91;5007007;28;20195;-75
2022/12/22 07:54:25;;;;;;;3.47;1.30;;;;;;;10.44;90.24;99315.16;5001054;28;20201;-76
2022/12/22 07:56:53;;;;;;;3.60;1.23;;;;;;;10.41;90.61;99317.81;5009612;28;20224;-78
2022/12/22 07:59:19;;;;;;;4.00;1.80;;;;;;;10.38;90.69;99316.91;5011175;28;20214;-76
2022/12/22 08:01:46;;;;;;;4.70;1.50;;;;;;;10.35;91.01;99316.03;5008288;28;20244;-80
2022/12/22 08:04:13;;;;;;;6.27;1.73;;;;;;;10.39;91.23;99316.91;5006882;28;20239;-77
2022/12/22 08:06:40;;;;;;;4.27;1.30;;;;;;;10.41;90.55;99306.34;5007294;28;20234;-74
2022/12/22 08:09:08;;;;;;;4.53;1.30;;;;;;;10.39;90.76;99311.59;5006951;28;20194;-75
2022/12/22 08:11:35;;;;;;;5.27;1.13;;;;;;;10.40;90.39;99305.44;5006138;28;20769;-72
2022/12/22 08:14:01;;;;;;;2.93;1.00;;;;;;;10.45;89.92;99308.97;5007882;28;20254;-73
2022/12/22 08:16:28;;;;;;;2.47;0.80;;;;;;;10.46;89.48;99304.56;5010634;28;20201;-72
2022/12/22 08:18:55;;;;;;;2.03;0.87;;;;;;;10.54;89.49;99316.00;5005600;28;20201;-72
2022/12/22 08:21:21;;;;;;;5.47;1.47;;;;;;;10.52;89.14;99310.72;5005102;28;20252;-73
2022/12/22 08:23:47;;;;;;;3.67;1.73;;;;;;;10.53;89.56;99306.28;5003765;28;20203;-72
2022/12/22 08:26:19;;;;;;;3.13;1.10;;;;;;;10.60;89.66;99308.91;5004278;28;20211;-74
2022/12/22 08:28:57;;;;;;;9.13;2.10;;;;;;;10.66;88.97;99305.34;5001496;28;20456;-77
2022/12/22 08:31:27;;;;;;;3.90;1.50;;;;;;;10.65;88.59;99320.34;5004337;28;20217;-77
2022/12/22 08:33:55;;;;;;;5.17;1.00;;;;;;;10.71;88.27;99323.84;5006119;28;20290;-72
2022/12/22 08:36:22;;;;;;;3.70;1.10;;;;;;;10.61;88.28;99307.13;5005990;28;20202;-73
2022/12/22 08:38:49;;;;;;;3.77;1.00;;;;;;;10.75;87.93;99326.47;5001791;28;20579;-78
2022/12/22 08:41:48;;;;;;;8.27;1.10;;;;;;;10.73;87.98;99330.91;5007145;28;20216;-75
2022/12/22 08:44:05;;;;;;;6.93;1.17;;;;;;;10.71;87.81;99327.38;5002397;28;20212;-74
2022/12/22 08:46:31;;;;;;;4.20;1.37;;;;;;;10.76;87.71;99330.88;5005878;28;20228;-79
2022/12/22 08:48:58;;;;;;;5.67;1.20;;;;;;;10.76;87.02;99324.72;5001255;28;20236;-80
2022/12/22 08:51:24;;;;;;;5.03;1.50;;;;;;;10.86;86.23;99337.94;5006604;28;20214;-80
2022/12/22 08:53:50;;;;;;;5.87;1.20;;;;;;;10.79;86.96;99345.88;4999897;28;20251;-77
2022/12/22 08:56:32;;;;;;;7.30;1.60;;;;;;;10.77;87.26;99342.34;5005586;28;20282;-78
2022/12/22 08:59:03;;;;;;;3.83;1.40;;;;;;;10.63;87.66;99338.00;5002243;28;20201;-76
2022/12/22 09:01:35;;;;;;;8.23;1.27;;;;;;;10.65;87.89;99346.81;5008273;28;20708;-79
2022/12/22 09:04:02;;;;;;;3.90;1.60;;;;;;;10.68;88.03;99356.53;5003733;28;20407;-78
2022/12/22 09:06:29;;;;;;;3.23;1.20;;;;;;;10.70;87.98;99361.81;5004196;28;20232;-77
2022/12/22 09:09:07;;;;;;;4.00;1.30;;;;;;;10.61;88.87;99365.38;5003283;28;20197;-72
2022/12/22 09:11:34;;;;;;;5.00;1.10;;;;;;;10.50;88.75;99372.47;5002755;28;20200;-77
2022/12/22 09:14:01;;;;;;;4.47;1.63;;;;;;;10.39;89.53;99374.25;5002430;28;20680;-71
2022/12/22 09:16:29;;;;;;;5.43;1.40;;;;;;;10.34;90.58;99363.69;5006233;28;20205;-72
2022/12/22 09:18:56;;;;;;;7.87;1.83;;;;;;;10.24;90.90;99364.59;5001938;28;20210;-76
2022/12/22 09:21:23;;;;;;;4.40;2.00;;;;;;;10.19;91.47;99376.91;5001155;28;20256;-80
2022/12/22 09:23:50;;;;;;;4.83;1.70;;;;;;;10.07;91.77;99353.13;5003026;28;20280;-72
2022/12/22 09:26:20;;;;;;;5.93;1.80;;;;;;;10.12;91.94;99378.69;5001645;28;20246;-73
2022/12/22 09:28:47;;;;;;;3.60;1.57;;;;;;;10.00;92.49;99361.03;4999721;28;20617;-73
2022/12/22 09:31:17;;;;;;;9.33;2.40;;;;;;;10.03;92.56;99361.06;5017284;28;20303;-79
2022/12/22 09:33:43;;;;;;;5.70;1.57;;;;;;;10.11;92.57;99376.06;5002557;28;20691;-78
2022/12/22 09:36:13;;;;;;;7.57;1.90;;;;;;;10.19;92.92;99391.03;5006632;28;20199;-80
2022/12/22 09:38:39;;;;;;;5.47;2.10;;;;;;;10.19;92.87;99379.56;5002665;28;20196;-81
2022/12/22 09:41:50;;;;;;;5.10;2.00;;;;;;;10.28;92.71;99398.97;5002885;28;20689;-77
2022/12/22 09:44:30;;;;;;;5.93;1.97;;;;;;;10.35;92.72;99395.44;4974065;28;20222;-78
2022/12/22 09:46:59;;;;;;;6.60;1.73;;;;;;;10.43;92.53;99399.84;5004532;28;20250;-77
2022/12/22 09:49:27;;;;;;;8.00;2.00;;;;;;;10.44;92.13;99385.75;5004712;28;20224;-81
2022/12/22 09:51:58;;;;;;;7.67;2.00;;;;;;;10.41;92.48;99397.22;5003873;28;20204;-78
2022/12/22 09:54:25;;;;;;;4.27;1.60;;;;;;;10.45;92.29;99398.97;5002586;28;20208;-81
2022/12/22 09:56:52;;;;;;;6.37;1.90;;;;;;;10.59;91.61;99413.03;5005882;28;20386;-79
2022/12/22 09:59:20;;;;;;;2.90;1.63;;;;;;;10.62;91.70;99422.75;5006322;28;20207;-82
2022/12/22 10:02:28;;;;;;;2.23;1.50;;;;;;;10.75;91.12;99421.81;5003897;28;20217;-80
2022/12/22 10:05:10;;;;;;;8.50;1.97;;;;;;;10.86;90.80;99429.75;5001886;28;20864;-80
2022/12/22 10:07:41;;;;;;;8.77;2.00;;;;;;;10.87;91.09;99428.88;5003807;28;20204;-83
2022/12/22 10:10:23;;;;;;;7.97;1.87;;;;;;;11.17;89.94;99452.56;5005112;28;20216;-82
2022/12/22 10:12:53;;;;;;;8.23;1.90;;;;;;;11.10;88.82;99421.69;5000329;28;20198;-79
2022/12/22 10:15:19;;;;;;;5.43;2.23;;;;;;;11.23;88.94;99439.31;5003595;28;20198;-84
2022/12/22 10:17:52;;;;;;;5.60;2.00;;;;;;;11.23;88.94;99443.75;5002122;28;21006;-76
2022/12/22 10:20:25;;;;;;;6.67;2.00;;;;;;;11.18;88.94;99446.38;5002338;28;20229;-75
2022/12/22 10:22:53;;;;;;;7.40;2.23;;;;;;;11.10;89.17;99445.53;5000749;28;20194;-75
2022/12/22 10:25:23;;;;;;;7.47;2.10;;;;;;;11.07;89.27;99452.63;5003145;28;20201;-72
2022/12/22 10:27:49;;;;;;;10.07;2.30;;;;;;;11.00;89.49;99446.47;5005439;28;20688;-73
2022/12/22 10:30:23;;;;;;;6.07;2.57;;;;;;;11.10;89.63;99453.50;5008052;28;20623;-79
2022/12/22 10:33:10;;;;;;;5.87;2.30;;;;;;;11.16;89.41;99455.22;5008064;28;20230;-76
2022/12/22 10:35:54;;;;;;;5.97;2.50;;;;;;;11.12;88.94;99459.66;5000732;28;20369;-84
2022/12/22 10:38:29;;;;;;;4.20;2.50;;;;;;;11.10;89.24;99461.44;5008306;28;20204;-81
2022/12/22 10:41:07;;;;;;;7.87;2.70;;;;;;;11.20;88.81;99456.97;5007415;28;20237;-83
2022/12/22 10:43:39;;;;;;;5.80;2.70;;;;;;;11.39;88.61;99457.78;5007193;28;20208;-81
2022/12/22 10:46:06;;;;;;;6.83;2.90;;;;;;;11.54;88.21;99469.19;5008314;28;20687;-80
2022/12/22 10:48:35;;;;;;;7.83;3.70;;;;;;;11.66;87.69;99481.53;5001423;28;20214;-71
2022/12/22 10:51:05;;;;;;;6.10;2.93;;;;;;;11.47;87.44;99466.56;5008245;28;20306;-81
2022/12/22 10:53:54;;;;;;;7.83;2.23;;;;;;;11.40;87.81;99484.28;5008363;28;20203;-75
2022/12/22 10:56:26;;;;;;;3.87;1.87;;;;;;;11.26;88.09;99473.75;5006234;28;20620;-80
2022/12/22 10:58:56;;;;;;;5.37;1.40;;;;;;;11.22;88.72;99492.34;5005785;28;20615;-79
2022/12/22 11:01:27;;;;;;;4.00;1.47;;;;;;;11.38;88.48;99498.44;5006531;28;20222;-80
2022/12/22 11:03:54;;;;;;;3.80;1.43;;;;;;;11.32;87.88;99491.41;5005608;28;20597;-79
2022/12/22 11:06:20;;;;;;;3.70;1.30;;;;;;;11.47;87.55;99509.88;5006584;28;20571;-83
2022/12/22 11:08:47;;;;;;;5.30;1.50;;;;;;;11.53;86.91;99514.28;5005816;28;20205;-77
2022/12/22 11:11:32;;;;;;;4.43;1.33;;;;;;;11.40;87.00;99513.44;5006086;28;20210;-75
2022/12/22 11:14:36;;;;;;;5.67;1.37;;;;;;;11.48;87.07;99524.03;5005498;28;20682;-82
2022/12/22 11:17:21;;;;;;;3.43;1.20;;;;;;;11.49;87.20;99524.00;5008155;28;20244;-80
2022/12/22 11:20:12;;;;;;;2.77;1.30;;;;;;;11.55;87.71;99528.41;5033861;22;20310;-66
2022/12/22 11:22:51;;;;;;;3.37;1.20;;;;;;;11.45;87.75;99518.72;5048836;28;20216;-67
2022/12/22 11:25:27;;;;;;;3.17;1.20;;;;;;;11.62;87.81;99535.47;5043912;28;20638;-67
2022/12/22 11:28:18;;;;;;;3.03;1.00;;;;;;;11.66;87.15;99545.19;5046705;28;20706;-67
2022/12/22 11:30:50;;;;;;;3.83;1.03;;;;;;;11.66;87.17;99553.13;5047572;28;20244;-71
2022/12/22 11:34:00;;;;;;;3.47;1.07;;;;;;;11.67;86.94;99552.25;5049720;28;20204;-69
2022/12/22 11:36:51;;;;;;;2.20;1.00;;;;;;;11.66;86.40;99558.44;5050580;28;20212;-71
2022/12/22 11:39:39;;;;;;;4.50;1.10;;;;;;;11.59;86.82;99569.94;5045010;28;20572;-69
2022/12/22 11:42:43;;;;;;;3.90;1.20;;;;;;;11.53;86.73;99585.88;5050577;28;20222;-67
2022/12/22 11:45:18;;;;;;;2.60;1.00;;;;;;;11.46;86.84;99585.00;5049686;28;20852;-69
2022/12/22 11:48:18;;;;;;;2.90;1.30;;;;;;;11.44;87.71;99589.44;5049315;28;20749;-69
2022/12/22 11:50:53;;;;;;;2.10;1.00;;;;;;;11.44;87.45;99594.75;5048287;28;20217;-69
2022/12/22 11:54:01;;;;;;;3.57;1.50;;;;;;;11.24;88.70;99601.88;5049427;28;20203;-68
2022/12/22 11:56:40;;;;;;;1.90;0.90;;;;;;;11.06;89.34;99610.72;5047334;28;20201;-68
2022/12/22 11:59:33;;;;;;;1.10;0.97;;;;;;;11.01;89.15;99616.91;5050020;28;20257;-68
2022/12/22 12:02:20;;;;;;;1.63;0.90;;;;;;;10.82;90.30;99629.28;5049778;28;20584;-66
2022/12/22 12:05:15;;;;;;;1.57;0.80;;;;;;;10.67;91.13;99620.44;5047467;28;20221;-66
2022/12/22 12:08:03;;;;;;;6.00;3.47;;;;;;;10.66;91.64;99618.69;5049422;28;20231;-67
2022/12/22 12:10:43;;;;;;;2.33;1.70;;;;;;;10.72;91.45;99633.69;5048668;28;20275;-66
2022/12/22 12:13:28;;;;;;;1.50;1.20;;;;;;;10.68;91.81;99640.75;5049702;28;20196;-66
2022/12/22 12:16:21;;;;;;;1.53;1.07;;;;;;;10.69;92.34;99649.56;5050061;28;20195;-68
2022/12/22 12:19:18;;;;;;;1.60;1.10;;;;;;;10.64;91.94;99646.03;5047861;28;20198;-66
2022/12/22 12:21:56;;;;;;;2.03;1.20;;;;;;;10.63;91.76;99662.81;5047674;28;20299;-64
2022/12/22 12:24:45;;;;;;;2.43;0.93;;;;;;;10.62;92.19;99661.03;5050153;28;20256;-68
2022/12/22 12:27:26;;;;;;;2.37;1.40;;;;;;;10.56;92.47;99671.63;5031265;28;20755;-66
2022/12/22 12:30:04;;;;;;;3.50;1.53;;;;;;;10.59;92.58;99671.63;5048447;28;20215;-66
2022/12/22 12:33:03;;;;;;;1.00;0.90;;;;;;;10.62;92.54;99674.28;5047902;28;20206;-66
2022/12/22 12:35:45;;;;;;;1.47;0.90;;;;;;;10.63;92.72;99668.97;5049835;28;20445;-65
2022/12/22 12:38:16;;;;;;;0.80;0.80;;;;;;;10.70;91.29;99679.59;5048609;28;20195;-65
2022/12/22 12:41:19;;;;;;;1.87;0.97;;;;;;;10.68;91.94;99672.53;5048536;28;20273;-66
2022/12/22 12:43:50;;;;;;;1.43;0.90;;;;;;;10.58;91.59;99686.63;5047956;28;20218;-66
2022/12/22 12:46:52;;;;;;;1.53;1.00;;;;;;;10.58;92.24;99693.69;5047102;28;20662;-68
2022/12/22 12:49:34;;;;;;;1.23;1.00;;;;;;;10.56;92.38;99695.47;4975652;28;20216;-67
2022/12/22 12:52:07;;;;;;;1.30;1.10;;;;;;;10.61;92.41;99702.53;5042549;28;20198;-66
2022/12/22 12:54:39;;;;;;;1.00;0.90;;;;;;;10.54;92.65;99700.75;5045222;28;20243;-68
2022/12/22 12:57:05;;;;;;;1.97;0.90;;;;;;;10.65;92.61;99712.25;5049507;28;20193;-66
2022/12/22 12:59:38;;;;;;;1.10;1.00;;;;;;;10.67;92.16;99709.59;5041313;28;20288;-66
2022/12/22 13:02:27;;;;;;;1.00;0.90;;;;;;;10.61;92.44;99707.81;5049549;28;20733;-67
2022/12/22 13:05:12;;;;;;;2.37;1.17;;;;;;;10.59;92.92;99719.28;5046613;28;20577;-66
2022/12/22 13:08:08;;;;;;;4.97;1.20;;;;;;;10.63;92.99;99719.28;5044809;28;20202;-67
2022/12/22 13:11:08;;;;;;;1.70;1.03;;;;;;;10.59;93.17;99716.63;5046032;28;20605;-67
2022/12/22 13:13:34;;;;;;;3.23;1.13;;;;;;;10.60;93.38;99724.59;5044612;28;20202;-67
2022/12/22 13:16:01;;;;;;;3.80;1.40;;;;;;;10.54;93.46;99721.94;5048869;28;20705;-69
2022/12/22 13:18:28;;;;;;;1.50;1.20;;;;;;;10.51;93.44;99719.28;5048878;28;20230;-70
2022/12/22 13:20:57;;;;;;;1.63;1.10;;;;;;;10.52;93.59;99713.09;5046900;28;20245;-68
2022/12/22 13:23:54;;;;;;;1.53;1.20;;;;;;;10.61;93.40;99734.28;5043093;28;20280;-68
2022/12/22 13:26:43;;;;;;;1.60;1.30;;;;;;;10.70;93.04;99736.06;5045110;28;20209;-68
2022/12/22 13:29:25;;;;;;;3.03;1.70;;;;;;;10.66;92.85;99743.13;5044418;28;20343;-68
2022/12/22 13:32:16;;;;;;;2.17;1.40;;;;;;;10.65;92.65;99754.59;5048590;28;20250;-68
2022/12/22 13:34:47;;;;;;;1.50;1.20;;;;;;;10.61;92.04;99751.94;5046311;28;20259;-68
2022/12/22 13:37:41;;;;;;;0.93;0.90;;;;;;;10.49;91.61;99766.03;5044107;28;20199;-67
2022/12/22 13:40:12;;;;;;;1.23;0.80;;;;;;;10.29;91.94;99742.13;5044235;28;20612;-69
2022/12/22 13:42:43;;;;;;;1.47;1.03;;;;;;;10.35;92.39;99759.78;5042511;28;20744;-69
2022/12/22 13:45:31;;;;;;;1.53;0.97;;;;;;;10.35;92.47;99762.44;5046979;28;20198;-68
2022/12/22 13:48:00;;;;;;;2.00;0.90;;;;;;;10.34;92.49;99764.19;5043672;28;20221;-68
2022/12/22 13:50:35;;;;;;;1.00;0.90;;;;;;;10.40;92.44;99755.41;5045877;28;20259;-68
2022/12/22 13:53:06;;;;;;;1.53;1.17;;;;;;;10.35;92.21;99755.38;5040010;28;20217;-68
2022/12/22 13:55:33;;;;;;;2.30;1.27;;;;;;;10.28;92.45;99742.13;4987120;28;20202;-67
2022/12/22 13:58:26;;;;;;;1.20;1.10;;;;;;;10.30;92.63;99759.78;5043132;28;20280;-68
2022/12/22 14:01:18;;;;;;;1.30;1.20;;;;;;;10.33;92.76;99756.25;5047037;28;20221;-68
2022/12/22 14:03:47;;;;;;;1.67;0.90;;;;;;;10.38;92.26;99761.56;5029037;28;20199;-68
2022/12/22 14:06:31;;;;;;;1.20;1.10;;;;;;;10.41;91.74;99761.59;5044134;28;20248;-67
2022/12/22 14:09:19;;;;;;;1.40;1.20;;;;;;;10.43;92.16;99765.13;5048009;28;20622;-67
2022/12/22 14:12:02;;;;;;;1.73;1.43;;;;;;;10.45;91.96;99774.84;5041716;28;20298;-69
2022/12/22 14:14:43;;;;;;;1.93;1.17;;;;;;;10.47;91.51;99778.38;5043295;28;20211;-68
2022/12/22 14:17:26;;;;;;;1.83;1.33;;;;;;;10.43;90.89;99788.97;5044658;28;20230;-68
2022/12/22 14:19:56;;;;;;;1.23;0.97;;;;;;;10.38;89.98;99788.91;5021133;28;20223;-68
2022/12/22 14:22:28;;;;;;;2.80;1.40;;;;;;;10.25;90.27;99795.03;5041145;28;20254;-70
2022/12/22 14:24:59;;;;;;;1.33;0.70;;;;;;;10.21;89.67;99791.50;5040355;28;20202;-68
2022/12/22 14:27:46;;;;;;;1.70;0.93;;;;;;;10.22;89.67;99789.72;5044462;28;20266;-70
2022/12/22 14:30:21;;;;;;;1.43;0.70;;;;;;;10.13;89.81;99779.97;5042313;28;20226;-68
2022/12/22 14:32:53;;;;;;;2.27;0.60;;;;;;;10.06;90.24;99788.75;5039855;28;20415;-68
2022/12/22 14:35:21;;;;;;;0.83;0.70;;;;;;;10.08;90.32;99794.94;5042130;28;20672;-68
2022/12/22 14:38:07;;;;;;;0.93;0.70;;;;;;;10.03;90.35;99784.31;5040362;28;20651;-68
2022/12/22 14:40:36;;;;;;;0.63;0.63;;;;;;;9.99;90.30;99802.78;5024654;28;20221;-68
2022/12/22 14:43:05;;;;;;;1.00;0.80;;;;;;;9.96;90.44;99803.66;5038346;28;20199;-68
2022/12/22 14:45:32;;;;;;;0.80;0.70;;;;;;;9.96;89.80;99806.28;5044998;28;20207;-71
2022/12/22 14:47:59;;;;;;;0.70;0.70;;;;;;;9.84;90.01;99802.69;5026138;28;20702;-66
2022/12/22 14:50:27;;;;;;;2.83;1.67;;;;;;;9.85;89.64;99805.34;5045789;28;20315;-69
2022/12/22 14:53:04;;;;;;;1.17;1.00;;;;;;;9.78;90.33;99806.19;5043158;28;20726;-70
2022/12/22 14:55:38;;;;;;;1.20;0.90;;;;;;;9.74;90.24;99800.00;5043440;28;20237;-69
2022/12/22 14:58:13;;;;;;;1.20;1.10;;;;;;;9.63;90.65;99799.03;5040381;28;20281;-69
2022/12/22 15:00:42;;;;;;;1.93;1.10;;;;;;;9.56;90.93;99798.94;5036874;28;20303;-70
2022/12/22 15:03:24;;;;;;;1.37;1.10;;;;;;;9.53;91.26;99807.75;5045045;28;20207;-68
2022/12/22 15:05:51;;;;;;;3.40;1.17;;;;;;;9.47;91.37;99812.09;5039151;28;20493;-68
2022/12/22 15:08:40;;;;;;;2.03;1.40;;;;;;;9.45;91.19;99819.13;5049081;28;20193;-66
2022/12/22 15:11:16;;;;;;;1.57;1.00;;;;;;;9.43;91.34;99820.00;5043295;28;20218;-69
2022/12/22 15:13:45;;;;;;;1.53;1.07;;;;;;;9.38;91.11;99813.78;5031310;28;20303;-69
2022/12/22 15:16:17;;;;;;;1.83;1.13;;;;;;;9.31;90.98;99819.00;5044344;28;20279;-70
2022/12/22 15:18:44;;;;;;;1.80;1.10;;;;;;;9.29;91.14;99832.22;5048137;28;20248;-71
2022/12/22 15:21:13;;;;;;;3.20;1.30;;;;;;;9.25;91.26;99833.06;5045599;28;20258;-68
2022/12/22 15:23:39;;;;;;;1.50;1.30;;;;;;;9.25;90.94;99826.88;5048658;28;20252;-72
2022/12/22 15:26:06;;;;;;;2.00;1.30;;;;;;;9.21;91.01;99825.09;5044690;28;20227;-69
2022/12/22 15:28:33;;;;;;;3.77;1.40;;;;;;;9.19;91.11;99843.53;5046425;28;20656;-68
2022/12/22 15:31:00;;;;;;;2.27;1.20;;;;;;;9.17;91.18;99844.41;5046923;28;20488;-68
2022/12/22 15:33:28;;;;;;;1.83;1.43;;;;;;;9.15;91.20;99844.38;5047786;28;20257;-69
2022/12/22 15:35:56;;;;;;;1.60;1.30;;;;;;;9.11;91.58;99837.28;5047870;28;20318;-69
2022/12/22 15:38:23;;;;;;;2.20;1.30;;;;;;;9.11;91.40;99832.91;5047670;28;20191;-69
2022/12/22 15:40:51;;;;;;;3.63;2.40;;;;;;;9.05;91.46;99824.91;5043573;28;20645;-69
2022/12/22 15:43:17;;;;;;;2.30;1.60;;;;;;;9.08;91.68;99838.16;5048134;28;20200;-70
2022/12/22 15:46:05;;;;;;;1.40;1.30;;;;;;;9.08;91.55;99842.56;5048551;28;20199;-67
2022/12/22 15:48:34;;;;;;;2.23;1.40;;;;;;;9.05;91.74;99840.75;5045166;28;20689;-68